sensor_id;sensor_type;location;lat;lon;timestamp;P1;durP1;ratioP1;P2;durP2;ratioP2
11255;SDS011;5685;52.384;13.420;2023-03-23T00:02:29;70.50;;;39.90;;
11255;SDS011;5685;52.384;13.420;2023-03-23T00:05:35;70.17;;;39.70;;
11255;SDS011;5685;52.384;13.420;2023-03-23T00:08:41;69.80;;;39.60;;
11255;SDS011;5685;52.384;13.420;2023-03-23T00:11:46;69.73;;;39.67;;
11255;SDS011;5685;52.384;13.420;2023-03-23T00:14:50;69.70;;;39.57;;
11255;SDS011;5685;52.384;13.420;2023-03-23T00:17:54;69.33;;;39.53;;
11255;SDS011;5685;52.384;13.420;2023-03-23T00:21:02;69.60;;;39.67;;
11255;SDS011;5685;52.384;13.420;2023-03-23T00:24:08;70.03;;;39.90;;
11255;SDS011;5685;52.384;13.420;2023-03-23T00:27:11;70.00;;;39.93;;
11255;SDS011;5685;52.384;13.420;2023-03-23T00:30:16;69.90;;;39.90;;
11255;SDS011;5685;52.384;13.420;2023-03-23T00:33:18;69.80;;;39.70;;
11255;SDS011;5685;52.384;13.420;2023-03-23T00:36:21;69.87;;;39.77;;
11255;SDS011;5685;52.384;13.420;2023-03-23T00:39:24;69.67;;;39.57;;
11255;SDS011;5685;52.384;13.420;2023-03-23T00:42:28;69.93;;;39.77;;
11255;SDS011;5685;52.384;13.420;2023-03-23T00:45:32;70.13;;;39.90;;
11255;SDS011;5685;52.384;13.420;2023-03-23T00:48:35;69.80;;;39.63;;
11255;SDS011;5685;52.384;13.420;2023-03-23T00:51:41;69.63;;;39.70;;
11255;SDS011;5685;52.384;13.420;2023-03-23T00:54:44;69.73;;;39.80;;
11255;SDS011;5685;52.384;13.420;2023-03-23T00:57:46;69.93;;;39.77;;
11255;SDS011;5685;52.384;13.420;2023-03-23T01:00:51;69.80;;;39.83;;
11255;SDS011;5685;52.384;13.420;2023-03-23T01:03:54;70.30;;;39.90;;
11255;SDS011;5685;52.384;13.420;2023-03-23T01:07:04;69.67;;;39.80;;
11255;SDS011;5685;52.384;13.420;2023-03-23T01:10:08;70.50;;;40.00;;
11255;SDS011;5685;52.384;13.420;2023-03-23T01:13:12;70.50;;;40.00;;
11255;SDS011;5685;52.384;13.420;2023-03-23T01:16:16;70.57;;;40.00;;
11255;SDS011;5685;52.384;13.420;2023-03-23T01:19:19;70.47;;;39.80;;
11255;SDS011;5685;52.384;13.420;2023-03-23T01:22:22;71.50;;;40.10;;
11255;SDS011;5685;52.384;13.420;2023-03-23T01:25:25;71.70;;;39.90;;
11255;SDS011;5685;52.384;13.420;2023-03-23T01:28:27;72.47;;;39.97;;
11255;SDS011;5685;52.384;13.420;2023-03-23T01:31:32;71.53;;;39.77;;
11255;SDS011;5685;52.384;13.420;2023-03-23T01:34:36;72.40;;;39.93;;
11255;SDS011;5685;52.384;13.420;2023-03-23T01:37:39;72.80;;;40.10;;
11255;SDS011;5685;52.384;13.420;2023-03-23T01:40:42;72.33;;;39.90;;
11255;SDS011;5685;52.384;13.420;2023-03-23T01:47:08;72.40;;;39.90;;
11255;SDS011;5685;52.384;13.420;2023-03-23T01:50:11;72.80;;;40.00;;
11255;SDS011;5685;52.384;13.420;2023-03-23T01:53:14;72.43;;;39.90;;
11255;SDS011;5685;52.384;13.420;2023-03-23T01:56:18;73.10;;;40.10;;
11255;SDS011;5685;52.384;13.420;2023-03-23T01:59:24;72.77;;;40.00;;
11255;SDS011;5685;52.384;13.420;2023-03-23T02:02:30;72.63;;;39.93;;
11255;SDS011;5685;52.384;13.420;2023-03-23T02:05:36;73.13;;;40.27;;
11255;SDS011;5685;52.384;13.420;2023-03-23T02:08:40;73.33;;;40.10;;
11255;SDS011;5685;52.384;13.420;2023-03-23T02:11:44;73.37;;;40.17;;
11255;SDS011;5685;52.384;13.420;2023-03-23T02:14:48;73.63;;;40.10;;
11255;SDS011;5685;52.384;13.420;2023-03-23T02:17:53;74.00;;;40.30;;
11255;SDS011;5685;52.384;13.420;2023-03-23T02:24:40;74.10;;;40.23;;
11255;SDS011;5685;52.384;13.420;2023-03-23T02:28:10;74.53;;;40.37;;
11255;SDS011;5685;52.384;13.420;2023-03-23T02:34:48;74.40;;;40.00;;
11255;SDS011;5685;52.384;13.420;2023-03-23T02:37:52;74.63;;;40.10;;
11255;SDS011;5685;52.384;13.420;2023-03-23T02:40:59;74.67;;;40.30;;
11255;SDS011;5685;52.384;13.420;2023-03-23T02:44:03;74.47;;;40.20;;
11255;SDS011;5685;52.384;13.420;2023-03-23T02:47:08;74.43;;;40.20;;
11255;SDS011;5685;52.384;13.420;2023-03-23T02:50:14;75.07;;;40.43;;
11255;SDS011;5685;52.384;13.420;2023-03-23T02:53:20;74.67;;;40.30;;
11255;SDS011;5685;52.384;13.420;2023-03-23T02:56:25;74.93;;;40.40;;
11255;SDS011;5685;52.384;13.420;2023-03-23T02:59:29;75.23;;;40.50;;
11255;SDS011;5685;52.384;13.420;2023-03-23T03:02:32;74.90;;;40.40;;
11255;SDS011;5685;52.384;13.420;2023-03-23T03:05:40;75.20;;;40.40;;
11255;SDS011;5685;52.384;13.420;2023-03-23T03:08:45;74.77;;;40.30;;
11255;SDS011;5685;52.384;13.420;2023-03-23T03:11:50;74.43;;;40.20;;
11255;SDS011;5685;52.384;13.420;2023-03-23T03:14:57;74.63;;;40.20;;
11255;SDS011;5685;52.384;13.420;2023-03-23T03:18:11;74.23;;;40.13;;
11255;SDS011;5685;52.384;13.420;2023-03-23T03:21:19;74.20;;;40.10;;
11255;SDS011;5685;52.384;13.420;2023-03-23T03:24:25;74.67;;;40.30;;
11255;SDS011;5685;52.384;13.420;2023-03-23T03:27:30;74.53;;;40.37;;
11255;SDS011;5685;52.384;13.420;2023-03-23T03:30:33;74.70;;;40.30;;
11255;SDS011;5685;52.384;13.420;2023-03-23T03:33:37;74.47;;;40.30;;
11255;SDS011;5685;52.384;13.420;2023-03-23T03:36:42;73.97;;;40.10;;
11255;SDS011;5685;52.384;13.420;2023-03-23T03:39:46;73.90;;;40.10;;
11255;SDS011;5685;52.384;13.420;2023-03-23T03:42:49;74.40;;;40.27;;
11255;SDS011;5685;52.384;13.420;2023-03-23T03:45:52;74.17;;;40.13;;
11255;SDS011;5685;52.384;13.420;2023-03-23T03:48:54;73.93;;;40.20;;
11255;SDS011;5685;52.384;13.420;2023-03-23T03:51:59;74.40;;;40.20;;
11255;SDS011;5685;52.384;13.420;2023-03-23T03:55:01;74.67;;;40.20;;
11255;SDS011;5685;52.384;13.420;2023-03-23T03:58:04;74.40;;;40.37;;
11255;SDS011;5685;52.384;13.420;2023-03-23T04:01:08;74.90;;;40.40;;
11255;SDS011;5685;52.384;13.420;2023-03-23T04:04:11;74.77;;;40.37;;
11255;SDS011;5685;52.384;13.420;2023-03-23T04:07:15;74.87;;;40.30;;
11255;SDS011;5685;52.384;13.420;2023-03-23T04:10:19;74.70;;;40.30;;
11255;SDS011;5685;52.384;13.420;2023-03-23T04:13:22;74.87;;;40.40;;
11255;SDS011;5685;52.384;13.420;2023-03-23T04:16:25;74.67;;;40.20;;
11255;SDS011;5685;52.384;13.420;2023-03-23T04:19:29;75.27;;;40.50;;
11255;SDS011;5685;52.384;13.420;2023-03-23T04:22:34;75.33;;;40.40;;
11255;SDS011;5685;52.384;13.420;2023-03-23T04:25:37;74.90;;;40.30;;
11255;SDS011;5685;52.384;13.420;2023-03-23T04:28:41;74.93;;;40.30;;
11255;SDS011;5685;52.384;13.420;2023-03-23T04:31:44;74.93;;;40.10;;
11255;SDS011;5685;52.384;13.420;2023-03-23T04:34:47;75.07;;;40.13;;
11255;SDS011;5685;52.384;13.420;2023-03-23T04:37:51;75.27;;;40.40;;
11255;SDS011;5685;52.384;13.420;2023-03-23T04:40:54;74.77;;;40.20;;
11255;SDS011;5685;52.384;13.420;2023-03-23T04:43:58;74.83;;;40.20;;
11255;SDS011;5685;52.384;13.420;2023-03-23T04:47:02;74.60;;;40.10;;
11255;SDS011;5685;52.384;13.420;2023-03-23T04:50:10;74.57;;;40.03;;
11255;SDS011;5685;52.384;13.420;2023-03-23T04:53:15;74.83;;;40.10;;
11255;SDS011;5685;52.384;13.420;2023-03-23T04:56:18;74.60;;;40.10;;
11255;SDS011;5685;52.384;13.420;2023-03-23T04:59:20;74.70;;;40.10;;
11255;SDS011;5685;52.384;13.420;2023-03-23T05:02:27;74.80;;;40.13;;
11255;SDS011;5685;52.384;13.420;2023-03-23T05:05:30;74.87;;;40.13;;
11255;SDS011;5685;52.384;13.420;2023-03-23T05:08:36;74.83;;;40.10;;
11255;SDS011;5685;52.384;13.420;2023-03-23T05:11:39;74.87;;;40.13;;
11255;SDS011;5685;52.384;13.420;2023-03-23T05:14:42;75.00;;;40.20;;
11255;SDS011;5685;52.384;13.420;2023-03-23T05:17:45;74.97;;;40.23;;
11255;SDS011;5685;52.384;13.420;2023-03-23T05:20:49;74.83;;;40.00;;
11255;SDS011;5685;52.384;13.420;2023-03-23T05:23:54;74.80;;;40.17;;
11255;SDS011;5685;52.384;13.420;2023-03-23T05:26:56;74.93;;;40.17;;
11255;SDS011;5685;52.384;13.420;2023-03-23T05:29:59;75.17;;;40.23;;
11255;SDS011;5685;52.384;13.420;2023-03-23T05:33:02;74.53;;;40.00;;
11255;SDS011;5685;52.384;13.420;2023-03-23T05:36:05;75.10;;;40.20;;
11255;SDS011;5685;52.384;13.420;2023-03-23T05:39:12;74.90;;;40.13;;
11255;SDS011;5685;52.384;13.420;2023-03-23T05:42:16;74.40;;;39.90;;
11255;SDS011;5685;52.384;13.420;2023-03-23T05:45:19;74.93;;;40.20;;
11255;SDS011;5685;52.384;13.420;2023-03-23T05:48:22;74.73;;;40.10;;
11255;SDS011;5685;52.384;13.420;2023-03-23T05:51:26;74.27;;;39.83;;
11255;SDS011;5685;52.384;13.420;2023-03-23T05:54:31;74.67;;;40.10;;
11255;SDS011;5685;52.384;13.420;2023-03-23T05:57:34;74.63;;;40.10;;
11255;SDS011;5685;52.384;13.420;2023-03-23T06:00:37;74.73;;;40.10;;
11255;SDS011;5685;52.384;13.420;2023-03-23T06:03:39;74.53;;;40.00;;
11255;SDS011;5685;52.384;13.420;2023-03-23T06:06:42;74.50;;;40.03;;
11255;SDS011;5685;52.384;13.420;2023-03-23T06:09:47;74.70;;;40.10;;
11255;SDS011;5685;52.384;13.420;2023-03-23T06:12:50;74.67;;;40.17;;
11255;SDS011;5685;52.384;13.420;2023-03-23T06:15:54;74.70;;;40.27;;
11255;SDS011;5685;52.384;13.420;2023-03-23T06:18:58;74.60;;;40.10;;
11255;SDS011;5685;52.384;13.420;2023-03-23T06:22:04;74.73;;;40.17;;
11255;SDS011;5685;52.384;13.420;2023-03-23T06:25:09;74.57;;;40.07;;
11255;SDS011;5685;52.384;13.420;2023-03-23T06:28:12;74.53;;;40.17;;
11255;SDS011;5685;52.384;13.420;2023-03-23T06:31:15;74.60;;;40.10;;
11255;SDS011;5685;52.384;13.420;2023-03-23T06:34:20;74.27;;;40.00;;
11255;SDS011;5685;52.384;13.420;2023-03-23T06:37:23;74.70;;;40.17;;
11255;SDS011;5685;52.384;13.420;2023-03-23T06:40:27;74.40;;;40.10;;
11255;SDS011;5685;52.384;13.420;2023-03-23T06:43:30;74.43;;;40.30;;
11255;SDS011;5685;52.384;13.420;2023-03-23T06:46:33;74.63;;;40.23;;
11255;SDS011;5685;52.384;13.420;2023-03-23T06:49:36;74.27;;;40.00;;
11255;SDS011;5685;52.384;13.420;2023-03-23T06:52:39;74.23;;;40.00;;
11255;SDS011;5685;52.384;13.420;2023-03-23T06:55:43;74.60;;;40.07;;
11255;SDS011;5685;52.384;13.420;2023-03-23T06:58:46;74.50;;;40.00;;
11255;SDS011;5685;52.384;13.420;2023-03-23T07:01:48;74.27;;;40.00;;
11255;SDS011;5685;52.384;13.420;2023-03-23T07:04:51;74.40;;;40.10;;
11255;SDS011;5685;52.384;13.420;2023-03-23T07:07:54;74.37;;;40.10;;
11255;SDS011;5685;52.384;13.420;2023-03-23T07:10:59;74.43;;;40.30;;
11255;SDS011;5685;52.384;13.420;2023-03-23T07:14:01;74.63;;;40.17;;
11255;SDS011;5685;52.384;13.420;2023-03-23T07:17:04;74.47;;;40.10;;
11255;SDS011;5685;52.384;13.420;2023-03-23T07:20:08;74.30;;;39.97;;
11255;SDS011;5685;52.384;13.420;2023-03-23T07:23:11;74.83;;;40.13;;
11255;SDS011;5685;52.384;13.420;2023-03-23T07:26:16;74.53;;;40.10;;
11255;SDS011;5685;52.384;13.420;2023-03-23T07:29:18;74.73;;;40.10;;
11255;SDS011;5685;52.384;13.420;2023-03-23T07:32:21;74.60;;;40.07;;
11255;SDS011;5685;52.384;13.420;2023-03-23T07:35:24;74.37;;;39.87;;
11255;SDS011;5685;52.384;13.420;2023-03-23T07:38:27;74.47;;;39.80;;
11255;SDS011;5685;52.384;13.420;2023-03-23T07:41:31;74.57;;;40.00;;
11255;SDS011;5685;52.384;13.420;2023-03-23T07:44:34;74.97;;;40.10;;
11255;SDS011;5685;52.384;13.420;2023-03-23T07:47:37;74.20;;;39.87;;
11255;SDS011;5685;52.384;13.420;2023-03-23T07:50:39;74.80;;;40.17;;
11255;SDS011;5685;52.384;13.420;2023-03-23T07:53:42;74.53;;;40.10;;
11255;SDS011;5685;52.384;13.420;2023-03-23T07:56:48;74.40;;;39.90;;
11255;SDS011;5685;52.384;13.420;2023-03-23T07:59:51;74.20;;;39.80;;
11255;SDS011;5685;52.384;13.420;2023-03-23T08:02:54;75.27;;;40.33;;
11255;SDS011;5685;52.384;13.420;2023-03-23T08:05:59;74.47;;;39.90;;
11255;SDS011;5685;52.384;13.420;2023-03-23T08:09:02;74.57;;;40.00;;
11255;SDS011;5685;52.384;13.420;2023-03-23T08:12:09;74.30;;;39.90;;
11255;SDS011;5685;52.384;13.420;2023-03-23T08:15:12;74.80;;;40.00;;
11255;SDS011;5685;52.384;13.420;2023-03-23T08:18:15;74.60;;;40.00;;
11255;SDS011;5685;52.384;13.420;2023-03-23T08:21:18;74.40;;;39.93;;
11255;SDS011;5685;52.384;13.420;2023-03-23T08:24:22;74.20;;;39.93;;
11255;SDS011;5685;52.384;13.420;2023-03-23T08:27:26;74.23;;;39.87;;
11255;SDS011;5685;52.384;13.420;2023-03-23T08:30:29;74.17;;;39.87;;
11255;SDS011;5685;52.384;13.420;2023-03-23T08:33:33;74.30;;;39.90;;
11255;SDS011;5685;52.384;13.420;2023-03-23T08:36:36;73.97;;;39.90;;
11255;SDS011;5685;52.384;13.420;2023-03-23T08:39:39;74.43;;;40.20;;
11255;SDS011;5685;52.384;13.420;2023-03-23T08:42:45;74.23;;;40.20;;
11255;SDS011;5685;52.384;13.420;2023-03-23T08:45:49;73.53;;;39.70;;
11255;SDS011;5685;52.384;13.420;2023-03-23T08:48:53;73.43;;;39.77;;
11255;SDS011;5685;52.384;13.420;2023-03-23T08:51:56;74.07;;;40.10;;
11255;SDS011;5685;52.384;13.420;2023-03-23T08:54:58;73.33;;;39.70;;
11255;SDS011;5685;52.384;13.420;2023-03-23T08:58:03;73.77;;;39.90;;
11255;SDS011;5685;52.384;13.420;2023-03-23T09:01:07;73.67;;;39.90;;
11255;SDS011;5685;52.384;13.420;2023-03-23T09:04:11;73.50;;;39.83;;
11255;SDS011;5685;52.384;13.420;2023-03-23T09:07:15;74.17;;;40.10;;
11255;SDS011;5685;52.384;13.420;2023-03-23T09:10:18;74.27;;;40.00;;
11255;SDS011;5685;52.384;13.420;2023-03-23T09:13:23;73.80;;;39.90;;
11255;SDS011;5685;52.384;13.420;2023-03-23T09:16:25;73.87;;;40.00;;
11255;SDS011;5685;52.384;13.420;2023-03-23T09:19:28;74.17;;;40.03;;
11255;SDS011;5685;52.384;13.420;2023-03-23T09:22:33;74.10;;;40.00;;
11255;SDS011;5685;52.384;13.420;2023-03-23T09:25:35;73.90;;;40.00;;
11255;SDS011;5685;52.384;13.420;2023-03-23T09:28:39;74.17;;;40.07;;
11255;SDS011;5685;52.384;13.420;2023-03-23T09:31:44;73.93;;;39.90;;
11255;SDS011;5685;52.384;13.420;2023-03-23T09:34:47;73.97;;;40.00;;
11255;SDS011;5685;52.384;13.420;2023-03-23T09:37:51;73.97;;;40.10;;
11255;SDS011;5685;52.384;13.420;2023-03-23T09:40:56;74.23;;;40.10;;
11255;SDS011;5685;52.384;13.420;2023-03-23T09:44:05;73.80;;;40.00;;
11255;SDS011;5685;52.384;13.420;2023-03-23T09:47:13;73.90;;;39.97;;
11255;SDS011;5685;52.384;13.420;2023-03-23T09:50:21;74.10;;;40.07;;
11255;SDS011;5685;52.384;13.420;2023-03-23T09:53:33;74.03;;;40.10;;
11255;SDS011;5685;52.384;13.420;2023-03-23T09:56:38;74.07;;;40.07;;
11255;SDS011;5685;52.384;13.420;2023-03-23T09:59:45;74.10;;;40.13;;
11255;SDS011;5685;52.384;13.420;2023-03-23T10:03:05;73.80;;;39.80;;
11255;SDS011;5685;52.384;13.420;2023-03-23T10:06:13;73.97;;;40.10;;
11255;SDS011;5685;52.384;13.420;2023-03-23T10:09:18;74.10;;;40.10;;
11255;SDS011;5685;52.384;13.420;2023-03-23T10:12:25;73.70;;;39.90;;
11255;SDS011;5685;52.384;13.420;2023-03-23T10:15:33;74.43;;;40.20;;
11255;SDS011;5685;52.384;13.420;2023-03-23T10:18:40;74.57;;;40.20;;
11255;SDS011;5685;52.384;13.420;2023-03-23T10:21:45;74.43;;;40.20;;
11255;SDS011;5685;52.384;13.420;2023-03-23T10:24:54;74.53;;;40.20;;
11255;SDS011;5685;52.384;13.420;2023-03-23T10:28:04;74.27;;;40.03;;
11255;SDS011;5685;52.384;13.420;2023-03-23T10:31:11;74.33;;;40.10;;
11255;SDS011;5685;52.384;13.420;2023-03-23T10:34:16;73.87;;;39.97;;
11255;SDS011;5685;52.384;13.420;2023-03-23T10:37:23;73.50;;;39.97;;
11255;SDS011;5685;52.384;13.420;2023-03-23T10:40:29;73.80;;;40.10;;
11255;SDS011;5685;52.384;13.420;2023-03-23T10:43:35;73.80;;;39.90;;
11255;SDS011;5685;52.384;13.420;2023-03-23T10:46:41;73.53;;;40.00;;
11255;SDS011;5685;52.384;13.420;2023-03-23T10:49:49;73.10;;;39.70;;
11255;SDS011;5685;52.384;13.420;2023-03-23T10:52:54;73.90;;;40.00;;
11255;SDS011;5685;52.384;13.420;2023-03-23T10:55:57;74.33;;;40.40;;
11255;SDS011;5685;52.384;13.420;2023-03-23T10:59:10;74.10;;;40.20;;
11255;SDS011;5685;52.384;13.420;2023-03-23T11:02:16;73.80;;;39.97;;
11255;SDS011;5685;52.384;13.420;2023-03-23T11:05:21;74.20;;;40.27;;
11255;SDS011;5685;52.384;13.420;2023-03-23T11:08:28;73.93;;;40.10;;
11255;SDS011;5685;52.384;13.420;2023-03-23T11:11:37;73.83;;;40.00;;
11255;SDS011;5685;52.384;13.420;2023-03-23T11:14:42;73.87;;;40.17;;
11255;SDS011;5685;52.384;13.420;2023-03-23T11:17:54;74.00;;;40.20;;
11255;SDS011;5685;52.384;13.420;2023-03-23T11:20:58;74.27;;;40.07;;
11255;SDS011;5685;52.384;13.420;2023-03-23T11:24:01;74.50;;;40.23;;
11255;SDS011;5685;52.384;13.420;2023-03-23T11:27:04;74.80;;;40.40;;
11255;SDS011;5685;52.384;13.420;2023-03-23T11:30:09;74.60;;;40.30;;
11255;SDS011;5685;52.384;13.420;2023-03-23T11:33:20;74.50;;;40.30;;
11255;SDS011;5685;52.384;13.420;2023-03-23T11:36:28;74.40;;;40.20;;
11255;SDS011;5685;52.384;13.420;2023-03-23T11:39:33;74.20;;;40.20;;
11255;SDS011;5685;52.384;13.420;2023-03-23T11:42:47;74.40;;;40.23;;
11255;SDS011;5685;52.384;13.420;2023-03-23T11:45:54;74.10;;;40.30;;
11255;SDS011;5685;52.384;13.420;2023-03-23T11:49:03;73.90;;;40.23;;
11255;SDS011;5685;52.384;13.420;2023-03-23T11:52:13;73.90;;;40.30;;
11255;SDS011;5685;52.384;13.420;2023-03-23T11:55:19;73.37;;;40.03;;
11255;SDS011;5685;52.384;13.420;2023-03-23T11:58:23;73.40;;;40.10;;
11255;SDS011;5685;52.384;13.420;2023-03-23T12:08:34;73.60;;;40.20;;
11255;SDS011;5685;52.384;13.420;2023-03-23T12:11:51;73.37;;;40.10;;
11255;SDS011;5685;52.384;13.420;2023-03-23T12:15:01;73.70;;;40.00;;
11255;SDS011;5685;52.384;13.420;2023-03-23T12:18:12;73.20;;;39.87;;
11255;SDS011;5685;52.384;13.420;2023-03-23T12:21:22;73.60;;;39.93;;
11255;SDS011;5685;52.384;13.420;2023-03-23T12:24:34;74.07;;;40.20;;
11255;SDS011;5685;52.384;13.420;2023-03-23T12:27:44;73.93;;;40.00;;
11255;SDS011;5685;52.384;13.420;2023-03-23T12:30:51;73.50;;;39.90;;
11255;SDS011;5685;52.384;13.420;2023-03-23T12:33:59;74.20;;;40.03;;
11255;SDS011;5685;52.384;13.420;2023-03-23T12:37:13;73.87;;;40.00;;
11255;SDS011;5685;52.384;13.420;2023-03-23T12:40:34;74.30;;;40.07;;
11255;SDS011;5685;52.384;13.420;2023-03-23T12:43:59;74.00;;;40.00;;
11255;SDS011;5685;52.384;13.420;2023-03-23T12:47:07;74.20;;;39.97;;
11255;SDS011;5685;52.384;13.420;2023-03-23T12:50:17;74.10;;;40.00;;
11255;SDS011;5685;52.384;13.420;2023-03-23T12:53:25;74.37;;;40.07;;
11255;SDS011;5685;52.384;13.420;2023-03-23T12:56:32;74.40;;;40.00;;
11255;SDS011;5685;52.384;13.420;2023-03-23T12:59:39;74.27;;;40.10;;
11255;SDS011;5685;52.384;13.420;2023-03-23T13:02:44;73.90;;;40.00;;
11255;SDS011;5685;52.384;13.420;2023-03-23T13:05:51;73.93;;;39.97;;
11255;SDS011;5685;52.384;13.420;2023-03-23T13:08:56;74.80;;;40.23;;
11255;SDS011;5685;52.384;13.420;2023-03-23T13:12:04;74.50;;;40.10;;
11255;SDS011;5685;52.384;13.420;2023-03-23T13:15:14;74.83;;;40.23;;
11255;SDS011;5685;52.384;13.420;2023-03-23T13:18:25;74.67;;;40.30;;
11255;SDS011;5685;52.384;13.420;2023-03-23T13:21:37;74.53;;;40.13;;
11255;SDS011;5685;52.384;13.420;2023-03-23T13:24:45;74.23;;;40.17;;
11255;SDS011;5685;52.384;13.420;2023-03-23T13:27:58;74.47;;;40.30;;
11255;SDS011;5685;52.384;13.420;2023-03-23T13:31:02;74.30;;;40.40;;
11255;SDS011;5685;52.384;13.420;2023-03-23T13:34:15;74.63;;;40.40;;
11255;SDS011;5685;52.384;13.420;2023-03-23T13:37:20;74.13;;;40.20;;
11255;SDS011;5685;52.384;13.420;2023-03-23T13:40:25;74.83;;;40.33;;
11255;SDS011;5685;52.384;13.420;2023-03-23T13:43:32;74.13;;;40.20;;
11255;SDS011;5685;52.384;13.420;2023-03-23T13:46:36;74.67;;;40.20;;
11255;SDS011;5685;52.384;13.420;2023-03-23T13:49:45;75.20;;;40.57;;
11255;SDS011;5685;52.384;13.420;2023-03-23T13:52:51;74.80;;;40.37;;
11255;SDS011;5685;52.384;13.420;2023-03-23T13:56:04;74.70;;;40.23;;
11255;SDS011;5685;52.384;13.420;2023-03-23T13:59:14;74.93;;;40.40;;
11255;SDS011;5685;52.384;13.420;2023-03-23T14:02:28;74.73;;;40.33;;
11255;SDS011;5685;52.384;13.420;2023-03-23T14:05:34;75.10;;;40.27;;
11255;SDS011;5685;52.384;13.420;2023-03-23T14:08:39;74.67;;;40.27;;
11255;SDS011;5685;52.384;13.420;2023-03-23T14:11:48;75.13;;;40.50;;
11255;SDS011;5685;52.384;13.420;2023-03-23T14:14:57;74.67;;;40.40;;
11255;SDS011;5685;52.384;13.420;2023-03-23T14:18:04;74.87;;;40.40;;
11255;SDS011;5685;52.384;13.420;2023-03-23T14:21:13;75.17;;;40.60;;
11255;SDS011;5685;52.384;13.420;2023-03-23T14:24:17;74.37;;;40.23;;
11255;SDS011;5685;52.384;13.420;2023-03-23T14:27:23;74.90;;;40.40;;
11255;SDS011;5685;52.384;13.420;2023-03-23T14:30:27;75.00;;;40.40;;
11255;SDS011;5685;52.384;13.420;2023-03-23T14:33:37;74.77;;;40.53;;
11255;SDS011;5685;52.384;13.420;2023-03-23T14:36:42;74.70;;;40.40;;
11255;SDS011;5685;52.384;13.420;2023-03-23T14:39:45;74.33;;;40.33;;
11255;SDS011;5685;52.384;13.420;2023-03-23T14:42:50;74.67;;;40.50;;
11255;SDS011;5685;52.384;13.420;2023-03-23T14:45:57;74.33;;;40.37;;
11255;SDS011;5685;52.384;13.420;2023-03-23T14:49:02;73.93;;;40.23;;
11255;SDS011;5685;52.384;13.420;2023-03-23T14:52:11;74.13;;;40.33;;
11255;SDS011;5685;52.384;13.420;2023-03-23T14:55:16;74.20;;;40.33;;
11255;SDS011;5685;52.384;13.420;2023-03-23T14:58:22;74.03;;;40.37;;
11255;SDS011;5685;52.384;13.420;2023-03-23T15:01:27;74.20;;;40.20;;
11255;SDS011;5685;52.384;13.420;2023-03-23T15:04:31;74.87;;;40.60;;
11255;SDS011;5685;52.384;13.420;2023-03-23T15:07:35;74.17;;;40.23;;
11255;SDS011;5685;52.384;13.420;2023-03-23T15:10:39;74.27;;;40.27;;
11255;SDS011;5685;52.384;13.420;2023-03-23T15:13:42;74.13;;;40.23;;
11255;SDS011;5685;52.384;13.420;2023-03-23T15:16:47;75.00;;;40.60;;
11255;SDS011;5685;52.384;13.420;2023-03-23T15:19:53;75.03;;;40.50;;
11255;SDS011;5685;52.384;13.420;2023-03-23T15:22:56;74.77;;;40.40;;
11255;SDS011;5685;52.384;13.420;2023-03-23T15:26:06;74.53;;;40.30;;
11255;SDS011;5685;52.384;13.420;2023-03-23T15:29:24;74.50;;;40.40;;
11255;SDS011;5685;52.384;13.420;2023-03-23T15:32:29;74.60;;;40.33;;
11255;SDS011;5685;52.384;13.420;2023-03-23T15:35:38;74.67;;;40.47;;
11255;SDS011;5685;52.384;13.420;2023-03-23T15:38:42;74.60;;;40.40;;
11255;SDS011;5685;52.384;13.420;2023-03-23T15:41:47;74.50;;;40.27;;
11255;SDS011;5685;52.384;13.420;2023-03-23T15:44:55;74.97;;;40.43;;
11255;SDS011;5685;52.384;13.420;2023-03-23T15:48:18;74.87;;;40.40;;
11255;SDS011;5685;52.384;13.420;2023-03-23T15:51:21;74.83;;;40.50;;
11255;SDS011;5685;52.384;13.420;2023-03-23T15:54:28;75.00;;;40.50;;
11255;SDS011;5685;52.384;13.420;2023-03-23T15:57:33;74.63;;;40.40;;
11255;SDS011;5685;52.384;13.420;2023-03-23T16:00:36;74.90;;;40.40;;
11255;SDS011;5685;52.384;13.420;2023-03-23T16:03:41;74.37;;;40.20;;
11255;SDS011;5685;52.384;13.420;2023-03-23T16:06:46;75.07;;;40.50;;
11255;SDS011;5685;52.384;13.420;2023-03-23T16:09:48;75.07;;;40.37;;
11255;SDS011;5685;52.384;13.420;2023-03-23T16:12:51;75.07;;;40.47;;
11255;SDS011;5685;52.384;13.420;2023-03-23T16:15:53;74.70;;;40.30;;
11255;SDS011;5685;52.384;13.420;2023-03-23T16:18:58;74.40;;;40.23;;
11255;SDS011;5685;52.384;13.420;2023-03-23T16:22:00;74.57;;;40.37;;
11255;SDS011;5685;52.384;13.420;2023-03-23T16:25:03;74.70;;;40.20;;
11255;SDS011;5685;52.384;13.420;2023-03-23T16:28:08;74.80;;;40.33;;
11255;SDS011;5685;52.384;13.420;2023-03-23T16:31:11;75.00;;;40.50;;
11255;SDS011;5685;52.384;13.420;2023-03-23T16:34:15;74.73;;;40.27;;
11255;SDS011;5685;52.384;13.420;2023-03-23T16:37:18;74.73;;;40.43;;
11255;SDS011;5685;52.384;13.420;2023-03-23T16:40:21;75.23;;;40.60;;
11255;SDS011;5685;52.384;13.420;2023-03-23T16:43:24;75.07;;;40.50;;
11255;SDS011;5685;52.384;13.420;2023-03-23T16:46:27;74.63;;;40.30;;
11255;SDS011;5685;52.384;13.420;2023-03-23T16:49:32;74.87;;;40.47;;
11255;SDS011;5685;52.384;13.420;2023-03-23T16:52:36;74.73;;;40.50;;
11255;SDS011;5685;52.384;13.420;2023-03-23T16:55:39;74.80;;;40.40;;
11255;SDS011;5685;52.384;13.420;2023-03-23T16:58:46;74.53;;;40.30;;
11255;SDS011;5685;52.384;13.420;2023-03-23T17:01:49;75.00;;;40.40;;
11255;SDS011;5685;52.384;13.420;2023-03-23T17:04:53;75.00;;;40.43;;
11255;SDS011;5685;52.384;13.420;2023-03-23T17:07:57;74.80;;;40.30;;
11255;SDS011;5685;52.384;13.420;2023-03-23T17:10:59;75.30;;;40.60;;
11255;SDS011;5685;52.384;13.420;2023-03-23T17:14:02;74.70;;;40.23;;
11255;SDS011;5685;52.384;13.420;2023-03-23T17:17:05;75.33;;;40.70;;
11255;SDS011;5685;52.384;13.420;2023-03-23T17:20:09;75.07;;;40.40;;
11255;SDS011;5685;52.384;13.420;2023-03-23T17:23:12;74.87;;;40.43;;
11255;SDS011;5685;52.384;13.420;2023-03-23T17:26:16;74.80;;;40.40;;
11255;SDS011;5685;52.384;13.420;2023-03-23T17:29:18;74.67;;;40.17;;
11255;SDS011;5685;52.384;13.420;2023-03-23T17:32:22;74.67;;;40.30;;
11255;SDS011;5685;52.384;13.420;2023-03-23T17:35:26;74.90;;;40.33;;
11255;SDS011;5685;52.384;13.420;2023-03-23T17:38:29;74.97;;;40.40;;
11255;SDS011;5685;52.384;13.420;2023-03-23T17:41:32;75.63;;;40.70;;
11255;SDS011;5685;52.384;13.420;2023-03-23T17:44:34;75.13;;;40.53;;
11255;SDS011;5685;52.384;13.420;2023-03-23T17:47:37;74.40;;;40.30;;
11255;SDS011;5685;52.384;13.420;2023-03-23T17:50:41;74.57;;;40.37;;
11255;SDS011;5685;52.384;13.420;2023-03-23T17:53:47;74.30;;;40.30;;
11255;SDS011;5685;52.384;13.420;2023-03-23T17:56:50;75.37;;;40.53;;
11255;SDS011;5685;52.384;13.420;2023-03-23T17:59:53;74.83;;;40.40;;
11255;SDS011;5685;52.384;13.420;2023-03-23T18:02:55;74.80;;;40.47;;
11255;SDS011;5685;52.384;13.420;2023-03-23T18:06:00;74.47;;;40.30;;
11255;SDS011;5685;52.384;13.420;2023-03-23T18:09:04;74.60;;;40.27;;
11255;SDS011;5685;52.384;13.420;2023-03-23T18:12:07;74.33;;;40.30;;
11255;SDS011;5685;52.384;13.420;2023-03-23T18:15:10;74.47;;;40.30;;
11255;SDS011;5685;52.384;13.420;2023-03-23T18:18:13;74.23;;;40.23;;
11255;SDS011;5685;52.384;13.420;2023-03-23T18:21:17;74.40;;;40.30;;